Time;durP1;ratioP1;P1;durP2;ratioP2;P2;SDS_P1;SDS_P2;PMS_P1;PMS_P2;Temp;Humidity;BMP_temperature;BMP_pressure;BME280_temperature;BME280_humidity;BME280_pressure;Samples;Min_cycle;Max_cycle;Signal;HPM_P1;HPM_P2
2023/08/16 00:01:38;;;;;;;9.80;4.47;;;;;;;23.73;59.85;93677.56;5092916;28;20043;-89
2023/08/16 00:04:04;;;;;;;15.20;5.05;;;;;;;23.74;59.82;93681.81;5074838;28;20040;-87
2023/08/16 00:06:30;;;;;;;11.60;4.72;;;;;;;23.73;59.91;93680.34;5072564;28;20119;-87
2023/08/16 00:08:58;;;;;;;11.60;4.30;;;;;;;23.71;59.88;93680.88;5093145;28;20035;-87
2023/08/16 00:11:24;;;;;;;15.05;5.00;;;;;;;23.72;59.94;93678.84;5059462;28;20122;-87
2023/08/16 00:13:50;;;;;;;12.15;5.38;;;;;;;23.73;59.63;93686.59;5088967;27;20031;-88
2023/08/16 00:16:15;;;;;;;13.85;4.78;;;;;;;23.72;59.89;93685.13;5096097;27;20334;-86
2023/08/16 00:18:42;;;;;;;15.27;4.93;;;;;;;23.72;59.87;93687.13;5105530;28;20047;-87
2023/08/16 00:21:07;;;;;;;10.13;4.40;;;;;;;23.72;59.75;93687.13;5092639;27;20404;-87
2023/08/16 00:23:32;;;;;;;11.27;4.65;;;;;;;23.71;59.82;93680.88;5083684;28;20048;-87
2023/08/16 00:25:58;;;;;;;11.57;4.95;;;;;;;23.71;59.80;93688.41;5103394;27;20046;-88
2023/08/16 00:28:23;;;;;;;11.18;4.70;;;;;;;23.70;60.01;93671.13;5095382;27;20047;-88
2023/08/16 00:30:55;;;;;;;14.75;5.28;;;;;;;23.70;59.99;93684.91;5097165;27;20519;-89
2023/08/16 00:33:21;;;;;;;15.23;4.72;;;;;;;23.71;59.81;93677.38;5094015;27;20027;-89
2023/08/16 00:35:47;;;;;;;9.90;4.95;;;;;;;23.69;59.82;93672.41;5059564;28;20039;-87
2023/08/16 00:38:12;;;;;;;12.07;4.70;;;;;;;23.70;59.88;93682.16;5079132;27;20039;-88
2023/08/16 00:40:37;;;;;;;13.75;4.55;;;;;;;23.70;59.85;93684.19;5096563;27;20088;-88
2023/08/16 00:43:03;;;;;;;8.88;4.70;;;;;;;23.70;59.68;93687.69;5104239;27;20047;-88
2023/08/16 00:45:29;;;;;;;14.23;4.40;;;;;;;23.70;59.88;93690.44;5079302;27;20424;-87
2023/08/16 00:47:54;;;;;;;11.13;4.20;;;;;;;23.69;59.98;93688.22;5081228;27;20035;-88
2023/08/16 00:50:23;;;;;;;11.57;4.72;;;;;;;23.69;59.98;93688.94;5076027;28;20043;-87
2023/08/16 00:52:49;;;;;;;9.85;4.43;;;;;;;23.69;59.90;93682.69;5086897;27;20031;-87
2023/08/16 00:55:15;;;;;;;11.32;4.95;;;;;;;23.68;59.83;93681.94;5055492;28;20236;-88
2023/08/16 00:57:40;;;;;;;9.00;5.25;;;;;;;23.69;59.89;93685.44;5089105;28;20050;-87
2023/08/16 01:00:06;;;;;;;8.80;3.97;;;;;;;23.68;59.93;93676.44;5100655;27;20082;-87
2023/08/16 01:02:32;;;;;;;10.82;4.88;;;;;;;23.68;59.95;93670.16;5078344;27;20061;-87
2023/08/16 01:04:57;;;;;;;9.95;4.45;;;;;;;23.68;59.86;93670.16;5092807;28;20051;-88
2023/08/16 01:07:22;;;;;;;9.35;4.45;;;;;;;23.68;59.95;93672.94;5072035;28;20051;-88
2023/08/16 01:09:48;;;;;;;11.15;4.93;;;;;;;23.69;59.71;93671.66;5103520;27;20481;-87
2023/08/16 01:12:35;;;;;;;9.48;3.97;;;;;;;23.67;59.68;93677.72;5075110;28;20082;-87
2023/08/16 01:15:12;;;;;;;10.32;4.90;;;;;;;23.66;59.96;93670.72;5059776;28;20034;-87
2023/08/16 01:17:38;;;;;;;11.90;4.78;;;;;;;23.67;59.70;93668.69;5058723;28;20117;-88
2023/08/16 01:20:04;;;;;;;10.02;4.32;;;;;;;23.67;59.74;93682.50;5061378;27;20043;-87
2023/08/16 01:22:39;;;;;;;8.73;4.43;;;;;;;23.67;59.96;93682.50;5092826;27;20077;-87
2023/08/16 01:25:35;;;;;;;10.18;4.50;;;;;;;23.65;59.86;93671.25;5092538;28;20493;-87
2023/08/16 01:28:01;;;;;;;10.73;4.07;;;;;;;23.66;59.89;93675.50;5109043;27;20409;-87
2023/08/16 01:30:27;;;;;;;9.10;3.83;;;;;;;23.67;59.84;93679.72;5070897;28;20025;-87
2023/08/16 01:32:52;;;;;;;10.43;4.68;;;;;;;23.65;59.95;93683.03;5075072;28;20031;-87
2023/08/16 01:35:17;;;;;;;8.98;4.68;;;;;;;23.65;59.66;93688.53;5096140;27;20041;-87
2023/08/16 01:37:44;;;;;;;10.68;4.63;;;;;;;23.64;59.73;93684.31;5095323;27;20035;-87
2023/08/16 01:40:10;;;;;;;8.27;4.47;;;;;;;23.67;59.82;93676.97;5110867;27;20039;-88
2023/08/16 01:42:39;;;;;;;12.93;4.97;;;;;;;23.66;59.77;93686.53;5103270;28;20058;-87
2023/08/16 01:45:05;;;;;;;11.77;4.55;;;;;;;23.65;59.69;93674.75;5058298;28;20039;-87
2023/08/16 01:47:30;;;;;;;12.63;5.43;;;;;;;23.64;59.92;93681.53;5071026;28;20181;-87
2023/08/16 01:49:55;;;;;;;9.95;5.68;;;;;;;23.65;59.89;93687.81;5091728;28;20403;-88
2023/08/16 01:52:21;;;;;;;8.77;4.63;;;;;;;23.64;59.82;93695.34;5077572;27;20031;-88
2023/08/16 01:54:46;;;;;;;17.73;5.45;;;;;;;23.64;59.80;93695.34;5095515;27;20047;-88
2023/08/16 01:57:12;;;;;;;9.25;4.80;;;;;;;23.66;59.89;93700.31;5112053;27;20985;-88
2023/08/16 01:59:37;;;;;;;8.80;4.70;;;;;;;23.65;59.78;93701.59;5117159;27;20047;-87
2023/08/16 02:02:03;;;;;;;12.45;3.92;;;;;;;23.64;59.78;93705.66;5057627;27;20040;-87
2023/08/16 02:04:28;;;;;;;12.00;4.88;;;;;;;23.65;59.66;93707.13;5078664;28;20360;-88
2023/08/16 02:06:54;;;;;;;10.55;4.93;;;;;;;23.64;59.66;93706.38;5061281;28;20035;-87
2023/08/16 02:09:19;;;;;;;10.52;4.53;;;;;;;23.64;59.91;93702.88;5057091;28;20077;-87
2023/08/16 02:11:45;;;;;;;13.07;4.45;;;;;;;23.63;59.90;93704.16;5073857;28;20491;-87
2023/08/16 02:14:10;;;;;;;8.18;4.40;;;;;;;23.64;59.95;93702.88;5070402;28;20040;-86
2023/08/16 02:16:36;;;;;;;11.90;4.80;;;;;;;23.64;59.72;93698.09;5087027;28;20379;-87
2023/08/16 02:19:01;;;;;;;9.15;4.85;;;;;;;23.64;59.78;93697.38;5091124;28;20044;-88
2023/08/16 02:21:26;;;;;;;9.02;4.55;;;;;;;23.63;59.86;93696.63;5091700;28;20100;-89
2023/08/16 02:23:52;;;;;;;10.18;4.55;;;;;;;23.64;59.76;93695.34;5079011;28;20032;-88
2023/08/16 02:26:18;;;;;;;9.18;4.60;;;;;;;23.63;59.77;93696.63;5090352;28;20504;-88
2023/08/16 02:28:43;;;;;;;7.28;4.43;;;;;;;23.62;59.86;93694.41;5074685;28;20059;-87
2023/08/16 02:31:09;;;;;;;12.65;4.93;;;;;;;23.62;59.75;93686.84;5070335;28;20222;-87
2023/08/16 02:33:34;;;;;;;8.23;4.45;;;;;;;23.62;59.92;93692.38;5072362;27;20242;-87
2023/08/16 02:36:00;;;;;;;14.30;5.32;;;;;;;23.62;59.81;93686.13;5074176;28;20036;-87
2023/08/16 02:38:25;;;;;;;9.15;4.63;;;;;;;23.61;59.78;93690.91;5089945;27;20421;-86
2023/08/16 02:40:51;;;;;;;8.60;3.95;;;;;;;23.60;59.89;93691.47;5060117;27;20648;-87
2023/08/16 02:43:16;;;;;;;8.13;4.50;;;;;;;23.61;59.80;93681.88;5059047;28;20591;-88
2023/08/16 02:45:42;;;;;;;7.85;4.25;;;;;;;23.60;59.90;93683.19;5078052;27;20030;-88
2023/08/16 02:48:07;;;;;;;8.32;4.35;;;;;;;23.60;59.60;93681.13;5106106;27;20082;-87
2023/08/16 02:50:34;;;;;;;8.05;4.28;;;;;;;23.59;59.74;93682.44;5076670;28;20039;-87
2023/08/16 02:52:59;;;;;;;6.07;3.97;;;;;;;23.60;59.77;93683.19;5053644;28;20036;-88
2023/08/16 02:55:25;;;;;;;8.07;4.10;;;;;;;23.60;59.84;93696.97;5088400;28;20039;-87
2023/08/16 02:57:51;;;;;;;9.27;4.75;;;;;;;23.60;59.90;93688.69;5077962;27;20031;-87
2023/08/16 03:00:17;;;;;;;8.05;4.60;;;;;;;23.60;59.82;93691.47;5080067;27;20240;-89
2023/08/16 03:02:43;;;;;;;6.07;3.60;;;;;;;23.59;59.82;93690.72;5111128;27;20050;-89
2023/08/16 03:05:09;;;;;;;9.57;4.43;;;;;;;23.60;59.96;93683.19;5056761;28;20032;-88
2023/08/16 03:07:34;;;;;;;11.13;5.05;;;;;;;23.58;59.72;93689.97;5065383;28;20028;-87
2023/08/16 03:10:00;;;;;;;7.32;4.45;;;;;;;23.59;59.80;93687.97;5070070;28;20048;-87
2023/08/16 03:12:25;;;;;;;6.57;3.55;;;;;;;23.59;59.58;93687.97;5084518;28;20028;-86
2023/08/16 03:14:51;;;;;;;9.32;5.07;;;;;;;23.60;59.64;93699.75;5070372;28;20032;-87
2023/08/16 03:17:16;;;;;;;10.70;4.13;;;;;;;23.58;59.40;93695.50;5086351;28;20040;-87
2023/08/16 03:19:42;;;;;;;4.93;3.90;;;;;;;23.58;59.80;93689.97;5084141;28;20043;-88
2023/08/16 03:22:07;;;;;;;10.32;4.22;;;;;;;23.57;59.72;93685.72;5086851;28;20043;-88
2023/08/16 03:24:32;;;;;;;7.93;4.28;;;;;;;23.58;59.77;93692.00;5079499;27;20035;-88
2023/08/16 03:26:58;;;;;;;8.80;4.25;;;;;;;23.57;59.92;93687.75;5075553;27;20042;-87
2023/08/16 03:29:23;;;;;;;10.60;3.92;;;;;;;23.58;59.83;93678.94;5056259;28;20035;-87
2023/08/16 03:31:49;;;;;;;9.43;4.32;;;;;;;23.58;59.43;93698.25;5072518;28;20040;-88
2023/08/16 03:34:14;;;;;;;27.08;23.55;;;;;;;23.59;59.76;93696.25;5072041;28;20051;-86
2023/08/16 03:36:40;;;;;;;211.77;190.13;;;;;;;23.62;59.57;93695.13;5101413;28;20523;-86
2023/08/16 03:39:06;;;;;;;22.00;12.48;;;;;;;23.67;59.65;93696.28;5085837;28;20039;-87
2023/08/16 03:41:33;;;;;;;164.02;135.32;;;;;;;23.72;59.21;93696.16;5109759;28;20042;-88
2023/08/16 03:44:00;;;;;;;17.77;10.52;;;;;;;23.66;59.23;93700.31;5062489;27;20062;-87
2023/08/16 03:46:26;;;;;;;17.92;11.32;;;;;;;23.70;59.45;93692.47;5077862;27;20086;-91
2023/08/16 03:48:51;;;;;;;12.57;7.57;;;;;;;23.69;59.46;93702.00;5060640;28;20504;-88
2023/08/16 03:51:17;;;;;;;12.48;7.97;;;;;;;23.62;59.65;93691.63;5073143;28;20473;-91
2023/08/16 03:53:42;;;;;;;33.15;11.45;;;;;;;23.56;60.02;93705.59;5086254;28;20130;-90
2023/08/16 03:56:08;;;;;;;24.30;11.93;;;;;;;23.46;60.38;93704.53;5094098;28;20044;-90
2023/08/16 03:58:33;;;;;;;22.77;12.80;;;;;;;23.27;60.57;93717.75;5065368;27;20036;-90
2023/08/16 04:00:58;;;;;;;32.78;15.00;;;;;;;23.11;61.03;93716.88;5067531;28;20028;-90
2023/08/16 04:03:24;;;;;;;24.23;13.35;;;;;;;22.90;61.26;93720.31;5055420;27;20242;-91
2023/08/16 04:05:49;;;;;;;47.70;19.27;;;;;;;22.79;61.38;93717.75;5071739;27;20035;-91
2023/08/16 04:08:16;;;;;;;31.48;15.57;;;;;;;22.69;62.45;93724.22;5090861;28;20033;-90
2023/08/16 04:10:44;;;;;;;25.38;13.43;;;;;;;22.55;62.48;93721.47;5073502;27;20081;-90
2023/08/16 04:13:09;;;;;;;24.90;15.05;;;;;;;22.54;62.40;93724.75;5067160;28;20044;-91
2023/08/16 04:15:35;;;;;;;28.58;12.63;;;;;;;22.47;62.12;93726.16;5024247;28;20144;-90
2023/08/16 04:18:00;;;;;;;23.77;11.10;;;;;;;22.44;61.74;93740.25;5050388;28;21550;-90
2023/08/16 04:20:26;;;;;;;22.83;9.40;;;;;;;22.31;61.63;93738.19;5019721;28;20044;-89
2023/08/16 04:22:51;;;;;;;16.35;12.63;;;;;;;22.26;61.21;93732.81;5054048;28;20099;-91
2023/08/16 04:25:17;;;;;;;28.35;15.68;;;;;;;22.12;61.81;93741.03;5033951;28;20064;-88
2023/08/16 04:27:43;;;;;;;30.40;11.95;;;;;;;22.13;61.71;93742.53;5031525;28;20045;-92
2023/08/16 04:30:09;;;;;;;20.60;11.02;;;;;;;22.07;62.07;93750.16;5036232;28;20044;-90
2023/08/16 04:32:35;;;;;;;20.38;11.02;;;;;;;22.08;62.57;93756.41;5050948;28;20051;-92
2023/08/16 04:35:04;;;;;;;54.40;25.83;;;;;;;22.05;62.79;93760.97;5024240;28;20152;-91
2023/08/16 04:37:32;;;;;;;22.75;13.52;;;;;;;22.07;62.56;93761.19;5027536;28;20052;-92
2023/08/16 04:39:57;;;;;;;23.00;12.52;;;;;;;22.18;62.19;93774.00;5036430;28;20525;-89
2023/08/16 04:42:23;;;;;;;19.02;10.65;;;;;;;22.10;62.37;93765.59;5067546;28;20043;-89
2023/08/16 04:44:48;;;;;;;14.80;7.82;;;;;;;22.18;62.25;93765.75;5081446;28;20048;-89
2023/08/16 04:47:14;;;;;;;12.60;7.57;;;;;;;22.15;62.64;93773.03;5068249;28;20046;-90
2023/08/16 04:49:39;;;;;;;8.45;6.30;;;;;;;22.13;63.12;93761.81;5062971;28;20051;-91
2023/08/16 04:52:05;;;;;;;9.38;6.50;;;;;;;22.16;62.71;93768.28;5022964;28;20044;-90
2023/08/16 04:54:31;;;;;;;9.15;6.68;;;;;;;22.21;62.85;93756.44;5045876;28;20455;-90
2023/08/16 04:56:57;;;;;;;9.85;6.60;;;;;;;22.27;62.71;93770.09;5053031;28;20048;-92
2023/08/16 04:59:23;;;;;;;13.43;7.03;;;;;;;22.26;63.22;93779.63;5040600;28;20051;-88
2023/08/16 05:01:50;;;;;;;10.15;7.10;;;;;;;22.17;63.33;93778.75;5021924;28;20175;-87
2023/08/16 05:04:15;;;;;;;13.93;7.40;;;;;;;22.20;63.25;93777.72;5085589;28;20044;-88
2023/08/16 05:06:40;;;;;;;15.32;9.88;;;;;;;22.21;63.45;93786.72;5086522;27;20129;-89
2023/08/16 05:09:06;;;;;;;16.27;14.55;;;;;;;22.15;63.71;93783.31;5102766;27;20035;-88
2023/08/16 05:11:31;;;;;;;11.98;7.63;;;;;;;22.19;63.64;93786.50;5104273;28;20043;-88
2023/08/16 05:13:57;;;;;;;10.27;9.18;;;;;;;22.18;64.25;93777.50;5115413;27;20035;-90
2023/08/16 05:16:22;;;;;;;14.18;10.65;;;;;;;22.20;64.12;93783.22;5089926;28;20089;-87
2023/08/16 05:18:47;;;;;;;13.43;9.05;;;;;;;22.17;63.96;93783.53;5091876;28;20032;-87
2023/08/16 05:21:14;;;;;;;8.52;7.63;;;;;;;22.13;64.34;93789.34;5064404;28;20055;-90
2023/08/16 05:23:40;;;;;;;9.82;7.25;;;;;;;22.13;64.57;93781.06;5073296;27;20043;-88
2023/08/16 05:26:06;;;;;;;15.30;10.43;;;;;;;22.16;64.46;93791.03;5115275;27;20079;-90
2023/08/16 05:28:31;;;;;;;17.67;11.30;;;;;;;22.12;64.72;93782.34;5065189;27;20050;-89
2023/08/16 05:31:07;;;;;;;19.88;13.30;;;;;;;22.15;64.58;93795.06;5085632;28;20443;-88
2023/08/16 05:33:32;;;;;;;26.75;14.43;;;;;;;22.16;64.62;93790.31;5077817;28;20092;-90
2023/08/16 05:35:58;;;;;;;17.15;12.55;;;;;;;22.27;64.24;93792.13;5106611;27;20032;-86
2023/08/16 05:38:23;;;;;;;22.77;14.07;;;;;;;22.21;64.97;93792.97;5088368;28;20389;-88
2023/08/16 05:40:49;;;;;;;14.52;11.15;;;;;;;22.27;64.79;93797.66;5070942;28;20516;-89
2023/08/16 05:43:14;;;;;;;13.57;10.70;;;;;;;22.25;64.44;93791.91;5071875;28;20040;-91
2023/08/16 05:45:39;;;;;;;12.77;9.27;;;;;;;22.19;64.81;93797.50;5133125;27;20406;-90
2023/08/16 05:48:05;;;;;;;15.80;10.60;;;;;;;22.20;64.97;93797.00;5079013;28;20040;-90
2023/08/16 05:50:35;;;;;;;18.05;10.35;;;;;;;22.23;64.94;93803.47;5102710;28;20055;-89
2023/08/16 05:53:00;;;;;;;24.87;12.60;;;;;;;22.30;64.83;93802.09;5065158;28;20044;-91
2023/08/16 05:55:26;;;;;;;23.67;13.13;;;;;;;22.29;64.59;93795.09;5094121;28;20837;-87
2023/08/16 05:57:51;;;;;;;22.20;12.55;;;;;;;22.28;65.33;93790.88;5070044;28;20555;-90
2023/08/16 06:00:17;;;;;;;26.63;12.68;;;;;;;22.31;64.86;93798.06;5067996;28;20408;-89
2023/08/16 06:02:42;;;;;;;31.85;12.48;;;;;;;22.35;65.31;93792.97;5094486;28;20035;-90
2023/08/16 06:05:09;;;;;;;20.95;12.68;;;;;;;22.26;65.70;93787.91;5075118;28;20124;-90
2023/08/16 06:07:36;;;;;;;15.57;10.68;;;;;;;22.32;65.94;93794.78;5071390;28;20040;-88
2023/08/16 06:10:01;;;;;;;18.92;9.73;;;;;;;22.41;65.82;93796.38;5058800;28;20036;-88
2023/08/16 06:12:28;;;;;;;11.27;8.43;;;;;;;22.47;65.47;93794.28;5086994;28;20078;-90
2023/08/16 06:14:54;;;;;;;10.25;9.00;;;;;;;22.50;65.34;93798.75;5079479;28;20044;-91
2023/08/16 06:17:20;;;;;;;10.15;7.50;;;;;;;22.48;65.62;93793.00;5065736;28;20047;-91
2023/08/16 06:19:45;;;;;;;8.85;7.95;;;;;;;22.42;65.91;93803.38;5071146;28;20036;-89
2023/08/16 06:22:10;;;;;;;10.40;7.22;;;;;;;22.39;65.98;93804.44;5082139;28;20040;-89
2023/08/16 06:24:36;;;;;;;7.40;6.60;;;;;;;22.34;66.16;93803.25;5066121;28;20510;-87
2023/08/16 06:27:02;;;;;;;9.55;7.20;;;;;;;22.35;65.92;93792.97;5065797;28;20032;-87
2023/08/16 06:29:27;;;;;;;8.13;7.15;;;;;;;22.30;65.89;93800.06;5064042;28;20386;-88
2023/08/16 06:31:55;;;;;;;10.40;8.48;;;;;;;22.34;66.11;93805.25;5086468;28;20760;-88
2023/08/16 06:34:21;;;;;;;15.82;9.68;;;;;;;22.37;65.96;93804.22;5051543;28;20044;-89
2023/08/16 06:36:47;;;;;;;17.98;12.75;;;;;;;22.38;66.10;93803.69;5067563;28;20044;-88
2023/08/16 06:39:13;;;;;;;25.42;12.70;;;;;;;22.39;65.94;93807.94;5067452;28;20224;-87
2023/08/16 06:41:39;;;;;;;23.10;11.68;;;;;;;22.40;65.85;93798.41;5067374;28;20035;-87
2023/08/16 06:44:05;;;;;;;15.25;10.80;;;;;;;22.38;65.93;93797.44;5088576;28;20086;-88
2023/08/16 06:46:31;;;;;;;16.15;9.77;;;;;;;22.41;65.77;93801.91;5087743;28;20039;-88
2023/08/16 06:48:56;;;;;;;15.68;9.73;;;;;;;22.32;65.96;93800.28;5070691;28;20127;-87
2023/08/16 06:51:21;;;;;;;13.43;9.45;;;;;;;22.41;65.78;93797.13;5087493;28;20049;-87
2023/08/16 06:53:49;;;;;;;12.48;11.18;;;;;;;22.43;65.59;93793.84;5079299;28;20036;-87
2023/08/16 06:56:14;;;;;;;10.15;8.93;;;;;;;22.44;65.73;93809.84;5088469;28;20150;-89
2023/08/16 06:58:41;;;;;;;11.70;8.90;;;;;;;22.54;66.15;93791.63;5077704;28;20042;-89
2023/08/16 07:01:08;;;;;;;21.65;9.55;;;;;;;22.55;65.87;93790.34;5070431;28;20036;-87
2023/08/16 07:03:33;;;;;;;24.48;10.80;;;;;;;22.60;65.61;93802.53;5076098;28;20060;-86
2023/08/16 07:05:59;;;;;;;16.92;9.10;;;;;;;22.57;65.51;93796.06;5086954;28;20040;-87
2023/08/16 07:08:24;;;;;;;11.55;7.55;;;;;;;22.56;65.34;93793.84;5073385;28;20043;-88
2023/08/16 07:10:49;;;;;;;11.77;8.60;;;;;;;22.62;65.09;93799.25;5065455;28;20040;-88
2023/08/16 07:13:15;;;;;;;10.98;8.20;;;;;;;22.68;64.88;93797.91;5046715;28;20032;-89
2023/08/16 07:15:41;;;;;;;13.27;8.35;;;;;;;22.67;64.53;93801.91;5047670;28;20048;-89
2023/08/16 07:18:06;;;;;;;16.63;10.65;;;;;;;22.76;63.92;93798.72;5052942;28;20048;-87
2023/08/16 07:20:32;;;;;;;17.50;10.02;;;;;;;22.73;63.74;93799.06;5058884;28;20474;-87
2023/08/16 07:22:58;;;;;;;15.15;9.50;;;;;;;22.74;63.21;93795.00;5069165;28;20084;-89
2023/08/16 07:25:25;;;;;;;18.52;9.05;;;;;;;22.82;62.03;93801.41;5081565;28;20044;-89
2023/08/16 07:27:51;;;;;;;15.40;9.70;;;;;;;22.80;61.85;93799.19;5069374;28;20047;-89
2023/08/16 07:30:17;;;;;;;22.90;8.07;;;;;;;22.81;61.22;93799.94;5050227;28;20044;-87
2023/08/16 07:32:48;;;;;;;17.90;8.05;;;;;;;22.88;60.41;93802.06;5066228;28;20039;-87
2023/08/16 07:35:13;;;;;;;21.65;9.20;;;;;;;22.88;60.78;93802.78;5051999;28;20556;-89
2023/08/16 07:37:39;;;;;;;25.08;9.20;;;;;;;22.99;60.58;93801.09;5075440;28;20036;-89
2023/08/16 07:40:07;;;;;;;30.63;16.48;;;;;;;22.99;60.36;93796.31;5073199;28;20048;-88
2023/08/16 07:42:32;;;;;;;43.35;21.85;;;;;;;23.00;60.44;93803.31;5099938;28;20096;-88
2023/08/16 07:44:59;;;;;;;45.50;23.60;;;;;;;23.06;60.28;93800.44;5069196;28;20099;-89
2023/08/16 07:47:25;;;;;;;54.88;29.70;;;;;;;23.06;60.40;93803.94;5073164;28;20036;-88
2023/08/16 07:49:50;;;;;;;62.80;31.95;;;;;;;23.14;60.20;93799.28;5091476;28;20047;-88
2023/08/16 07:52:16;;;;;;;74.22;31.15;;;;;;;23.19;60.06;93803.16;5050612;28;20040;-89
2023/08/16 07:54:41;;;;;;;49.38;26.15;;;;;;;23.36;59.99;93800.09;5053772;28;20063;-90
2023/08/16 07:57:06;;;;;;;48.40;27.17;;;;;;;23.27;60.35;93801.25;5028398;28;20051;-90
2023/08/16 07:59:32;;;;;;;45.45;22.88;;;;;;;23.34;59.75;93805.41;5065545;28;20036;-89
2023/08/16 08:01:58;;;;;;;42.13;23.73;;;;;;;23.30;60.12;93805.72;5048712;28;20037;-89
2023/08/16 08:04:23;;;;;;;37.50;19.85;;;;;;;23.40;59.81;93806.75;5059021;28;20034;-89
2023/08/16 08:06:48;;;;;;;33.65;15.73;;;;;;;23.38;60.43;93808.56;5070275;28;20036;-87
2023/08/16 08:09:14;;;;;;;97.70;18.67;;;;;;;23.39;60.32;93812.78;5069050;28;20555;-89
2023/08/16 08:11:39;;;;;;;18.73;11.63;;;;;;;23.41;60.51;93815.75;5045558;28;20049;-89
2023/08/16 08:14:05;;;;;;;17.25;11.35;;;;;;;23.41;60.53;93804.72;5068715;28;20093;-88
2023/08/16 08:16:30;;;;;;;20.08;12.48;;;;;;;23.40;60.38;93803.97;5061177;28;20033;-87
2023/08/16 08:18:56;;;;;;;25.95;12.45;;;;;;;23.46;60.46;93804.59;5064323;28;20040;-88
2023/08/16 08:21:21;;;;;;;16.85;9.43;;;;;;;23.48;60.52;93807.56;5049460;28;20082;-88
2023/08/16 08:23:47;;;;;;;16.42;9.70;;;;;;;23.52;60.45;93810.78;5075024;28;20143;-89
2023/08/16 08:26:13;;;;;;;18.88;8.07;;;;;;;23.49;60.38;93803.53;5057956;28;20040;-89
2023/08/16 08:28:38;;;;;;;9.80;6.63;;;;;;;23.50;60.37;93807.78;5058751;28;20040;-88
2023/08/16 08:31:04;;;;;;;9.02;7.35;;;;;;;23.47;60.35;93808.84;5069646;28;20055;-87
2023/08/16 08:33:29;;;;;;;12.32;7.00;;;;;;;23.49;60.37;93814.59;5067054;28;20049;-88
2023/08/16 08:35:55;;;;;;;16.40;6.93;;;;;;;23.47;60.27;93811.63;5075783;28;20481;-87
2023/08/16 08:38:22;;;;;;;15.38;6.55;;;;;;;23.55;60.28;93808.97;5086260;28;20055;-89
2023/08/16 08:40:47;;;;;;;19.25;7.00;;;;;;;23.60;60.19;93819.13;5089276;28;20525;-89
2023/08/16 08:43:13;;;;;;;11.00;7.18;;;;;;;23.63;59.91;93822.84;5084603;28;20048;-88
2023/08/16 08:45:42;;;;;;;15.75;7.20;;;;;;;23.65;59.46;93821.03;5067887;28;20037;-89
2023/08/16 08:48:07;;;;;;;10.98;8.00;;;;;;;23.66;59.50;93819.75;5066055;28;20099;-88
2023/08/16 08:50:33;;;;;;;15.30;8.20;;;;;;;23.67;59.82;93815.72;5046917;28;20040;-88
2023/08/16 08:53:00;;;;;;;11.93;8.23;;;;;;;23.69;59.85;93815.94;5058072;28;20529;-88
2023/08/16 08:55:27;;;;;;;13.75;8.02;;;;;;;23.71;59.80;93813.38;5070164;28;20033;-88
2023/08/16 08:57:53;;;;;;;17.15;8.70;;;;;;;23.65;59.91;93815.50;5062702;28;20035;-88
2023/08/16 09:00:19;;;;;;;17.92;10.52;;;;;;;23.76;59.69;93811.78;5059768;28;20127;-88
2023/08/16 09:02:46;;;;;;;12.27;9.02;;;;;;;23.79;59.73;93807.94;5049666;28;20036;-89
2023/08/16 09:05:12;;;;;;;15.57;9.85;;;;;;;23.83;59.52;93809.06;5049829;28;20075;-89
2023/08/16 09:07:38;;;;;;;13.68;8.32;;;;;;;23.77;59.84;93811.25;5062016;28;20127;-88
2023/08/16 09:10:04;;;;;;;11.02;6.88;;;;;;;23.73;59.67;93812.84;5065630;28;20157;-88
2023/08/16 09:12:30;;;;;;;10.10;7.15;;;;;;;23.71;59.60;93816.13;5079633;28;20040;-89
2023/08/16 09:14:56;;;;;;;11.93;7.55;;;;;;;23.76;59.67;93809.75;5069099;28;20102;-89
2023/08/16 09:17:21;;;;;;;12.73;8.35;;;;;;;23.74;59.78;93812.31;5071414;28;20036;-89
2023/08/16 09:19:48;;;;;;;13.35;7.50;;;;;;;23.73;59.59;93813.59;5082219;28;20415;-88
2023/08/16 09:22:14;;;;;;;12.70;7.35;;;;;;;23.81;59.84;93814.41;5072658;28;20036;-88
2023/08/16 09:24:42;;;;;;;12.75;7.20;;;;;;;23.84;59.59;93813.31;5070327;28;20494;-89
2023/08/16 09:27:10;;;;;;;11.45;6.97;;;;;;;23.83;60.03;93811.84;5069085;28;20050;-89
2023/08/16 09:29:39;;;;;;;13.55;7.55;;;;;;;23.83;59.90;93813.84;5050071;28;20155;-91
2023/08/16 09:32:06;;;;;;;20.88;11.30;;;;;;;23.92;59.91;93813.41;5058452;28;20047;-90
2023/08/16 09:34:31;;;;;;;21.13;11.85;;;;;;;23.92;60.35;93819.66;5072239;28;20055;-90
2023/08/16 09:36:57;;;;;;;21.70;12.00;;;;;;;23.95;60.14;93811.59;5072579;28;20035;-91
2023/08/16 09:39:25;;;;;;;17.48;10.98;;;;;;;23.97;60.41;93806.28;5056894;28;20502;-89
2023/08/16 09:41:50;;;;;;;17.80;11.00;;;;;;;23.97;60.45;93812.53;5055323;28;20040;-88
2023/08/16 09:44:16;;;;;;;18.92;11.73;;;;;;;23.95;60.92;93808.81;5067600;28;20036;-89
2023/08/16 09:46:41;;;;;;;19.15;9.80;;;;;;;23.97;61.39;93809.03;5054524;28;20433;-89
2023/08/16 09:49:08;;;;;;;14.65;9.60;;;;;;;24.02;61.32;93797.84;5053432;28;20551;-89
2023/08/16 09:51:37;;;;;;;16.92;11.40;;;;;;;23.98;62.00;93797.44;5061643;28;20055;-89
2023/08/16 09:54:12;;;;;;;28.55;13.10;;;;;;;23.99;62.00;93796.16;5052396;28;20115;-90
2023/08/16 09:56:38;;;;;;;19.98;13.98;;;;;;;24.01;62.45;93796.38;5087231;28;20040;-90
2023/08/16 09:59:08;;;;;;;28.27;17.92;;;;;;;24.02;62.26;93797.84;5048944;28;20109;-90
2023/08/16 10:01:36;;;;;;;25.10;15.20;;;;;;;24.07;62.37;93790.69;5068487;28;20131;-90
2023/08/16 10:04:02;;;;;;;28.55;15.25;;;;;;;24.05;62.70;93807.06;5061186;28;20111;-90
2023/08/16 10:06:30;;;;;;;25.25;15.25;;;;;;;24.06;62.54;93809.28;5077111;28;20050;-89
2023/08/16 10:08:56;;;;;;;18.17;13.35;;;;;;;24.05;62.57;93802.28;5048627;28;20064;-89
2023/08/16 10:11:26;;;;;;;19.85;14.93;;;;;;;24.01;62.64;93814.97;5057930;28;20097;-89
2023/08/16 10:13:51;;;;;;;23.30;13.27;;;;;;;24.02;62.52;93800.63;5059790;28;20131;-90
2023/08/16 10:16:17;;;;;;;20.25;14.65;;;;;;;24.00;62.77;93805.94;5075013;28;20069;-90
2023/08/16 10:18:43;;;;;;;22.60;14.50;;;;;;;24.01;62.72;93803.91;5064150;28;20051;-91
2023/08/16 10:21:10;;;;;;;26.98;14.73;;;;;;;23.99;62.50;93804.44;5037966;28;20087;-89
2023/08/16 10:23:38;;;;;;;30.10;15.55;;;;;;;23.99;62.71;93800.94;5036483;28;20099;-89
2023/08/16 10:26:03;;;;;;;26.15;14.30;;;;;;;24.00;62.73;93796.91;5035036;28;20036;-90
2023/08/16 10:28:28;;;;;;;23.85;14.43;;;;;;;23.99;62.88;93798.19;5007567;28;20094;-89
2023/08/16 10:30:54;;;;;;;24.70;13.70;;;;;;;23.97;62.95;93795.22;5038972;28;20041;-91
2023/08/16 10:33:33;;;;;;;20.65;12.63;;;;;;;23.98;62.69;93796.72;5021669;28;20404;-90
2023/08/16 10:36:07;;;;;;;23.65;14.45;;;;;;;23.98;62.57;93802.22;5058471;28;20044;-90
2023/08/16 10:38:41;;;;;;;21.02;13.77;;;;;;;23.96;62.62;93800.00;5022736;28;20048;-90
2023/08/16 10:41:12;;;;;;;30.77;12.35;;;;;;;23.97;62.62;93789.69;5075711;28;20039;-91
2023/08/16 10:43:37;;;;;;;19.33;11.00;;;;;;;23.97;62.60;93793.19;5048279;28;20553;-90
2023/08/16 10:46:04;;;;;;;22.20;12.75;;;;;;;23.98;62.25;93791.19;5023595;28;20041;-90
2023/08/16 10:48:35;;;;;;;23.10;12.13;;;;;;;23.98;62.19;93788.41;5048464;28;20040;-90
2023/08/16 10:51:06;;;;;;;23.33;11.70;;;;;;;23.97;62.16;93786.94;5051995;28;20067;-91
2023/08/16 10:53:32;;;;;;;19.92;11.18;;;;;;;24.01;62.10;93779.81;5047692;28;20094;-89
2023/08/16 10:55:58;;;;;;;26.17;12.73;;;;;;;24.03;62.04;93782.03;5048153;28;20040;-89
2023/08/16 10:58:24;;;;;;;26.20;11.73;;;;;;;24.05;62.42;93779.44;5052910;28;20542;-89
2023/08/16 11:00:57;;;;;;;34.65;15.25;;;;;;;24.01;62.23;93776.31;5039776;28;20041;-89
2023/08/16 11:03:32;;;;;;;38.08;17.77;;;;;;;24.04;61.88;93775.19;5049517;28;20509;-91
2023/08/16 11:05:59;;;;;;;65.18;27.15;;;;;;;24.06;62.03;93773.38;5059353;28;20041;-90
2023/08/16 11:08:27;;;;;;;67.70;27.33;;;;;;;24.08;61.43;93770.09;5066091;28;20401;-91
2023/08/16 11:10:53;;;;;;;64.45;27.27;;;;;;;24.09;61.59;93768.81;5053812;28;20036;-92
2023/08/16 11:13:18;;;;;;;70.85;31.00;;;;;;;24.08;61.66;93761.81;5053817;28;20430;-90
2023/08/16 11:15:44;;;;;;;58.40;25.88;;;;;;;24.07;61.74;93769.34;5032647;28;20029;-89
2023/08/16 11:18:09;;;;;;;54.28;28.15;;;;;;;24.07;61.78;93760.31;5065760;28;20032;-90
2023/08/16 11:20:35;;;;;;;67.38;26.38;;;;;;;24.07;62.15;93754.78;5039176;28;20494;-90